sensor_id;sensor_type;location;lat;lon;timestamp;P1;durP1;ratioP1;P2;durP2;ratioP2
18933;SDS011;9599;53.706;10.384;2022-08-25T00:00:16;7.07;;;6.00;;
18933;SDS011;9599;53.706;10.384;2022-08-25T00:02:45;8.87;;;6.37;;
18933;SDS011;9599;53.706;10.384;2022-08-25T00:05:25;9.00;;;6.70;;
18933;SDS011;9599;53.706;10.384;2022-08-25T00:07:58;8.77;;;6.47;;
18933;SDS011;9599;53.706;10.384;2022-08-25T00:10:27;8.53;;;6.20;;
18933;SDS011;9599;53.706;10.384;2022-08-25T00:12:55;11.00;;;6.53;;
18933;SDS011;9599;53.706;10.384;2022-08-25T00:15:23;8.33;;;6.40;;
18933;SDS011;9599;53.706;10.384;2022-08-25T00:17:53;7.73;;;6.40;;
18933;SDS011;9599;53.706;10.384;2022-08-25T00:20:21;8.47;;;6.27;;
18933;SDS011;9599;53.706;10.384;2022-08-25T00:22:50;11.83;;;6.67;;
18933;SDS011;9599;53.706;10.384;2022-08-25T00:25:18;8.57;;;6.17;;
18933;SDS011;9599;53.706;10.384;2022-08-25T00:27:48;8.80;;;6.73;;
18933;SDS011;9599;53.706;10.384;2022-08-25T00:30:17;8.73;;;6.37;;
18933;SDS011;9599;53.706;10.384;2022-08-25T00:32:45;7.43;;;6.60;;
18933;SDS011;9599;53.706;10.384;2022-08-25T00:35:24;7.90;;;6.20;;
18933;SDS011;9599;53.706;10.384;2022-08-25T00:37:53;7.77;;;6.37;;
18933;SDS011;9599;53.706;10.384;2022-08-25T00:40:21;10.60;;;6.17;;
18933;SDS011;9599;53.706;10.384;2022-08-25T00:42:51;12.57;;;6.73;;
18933;SDS011;9599;53.706;10.384;2022-08-25T00:45:19;10.67;;;6.60;;
18933;SDS011;9599;53.706;10.384;2022-08-25T00:47:48;9.60;;;6.70;;
18933;SDS011;9599;53.706;10.384;2022-08-25T00:50:16;11.13;;;6.87;;
18933;SDS011;9599;53.706;10.384;2022-08-25T00:52:47;7.70;;;6.03;;
18933;SDS011;9599;53.706;10.384;2022-08-25T00:55:19;8.67;;;6.57;;
18933;SDS011;9599;53.706;10.384;2022-08-25T00:57:52;8.57;;;6.80;;
18933;SDS011;9599;53.706;10.384;2022-08-25T01:00:24;8.10;;;6.80;;
18933;SDS011;9599;53.706;10.384;2022-08-25T01:02:55;8.60;;;6.43;;
18933;SDS011;9599;53.706;10.384;2022-08-25T01:05:23;12.03;;;6.87;;
18933;SDS011;9599;53.706;10.384;2022-08-25T01:07:54;7.83;;;6.40;;
18933;SDS011;9599;53.706;10.384;2022-08-25T01:10:25;9.37;;;6.83;;
18933;SDS011;9599;53.706;10.384;2022-08-25T01:12:55;10.73;;;7.03;;
18933;SDS011;9599;53.706;10.384;2022-08-25T01:15:27;9.83;;;7.33;;
18933;SDS011;9599;53.706;10.384;2022-08-25T01:17:56;9.00;;;7.40;;
18933;SDS011;9599;53.706;10.384;2022-08-25T01:20:29;10.57;;;6.80;;
18933;SDS011;9599;53.706;10.384;2022-08-25T01:22:59;8.13;;;7.33;;
18933;SDS011;9599;53.706;10.384;2022-08-25T01:25:31;8.63;;;6.90;;
18933;SDS011;9599;53.706;10.384;2022-08-25T01:28:05;11.17;;;7.13;;
18933;SDS011;9599;53.706;10.384;2022-08-25T01:30:34;10.53;;;7.43;;
18933;SDS011;9599;53.706;10.384;2022-08-25T01:33:02;9.37;;;6.77;;
18933;SDS011;9599;53.706;10.384;2022-08-25T01:35:31;10.53;;;7.27;;
18933;SDS011;9599;53.706;10.384;2022-08-25T01:38:00;11.00;;;7.67;;
18933;SDS011;9599;53.706;10.384;2022-08-25T01:40:31;8.83;;;7.60;;
18933;SDS011;9599;53.706;10.384;2022-08-25T01:43:02;8.63;;;7.30;;
18933;SDS011;9599;53.706;10.384;2022-08-25T01:45:39;9.33;;;7.50;;
18933;SDS011;9599;53.706;10.384;2022-08-25T01:48:09;10.57;;;7.73;;
18933;SDS011;9599;53.706;10.384;2022-08-25T01:50:38;8.80;;;7.50;;
18933;SDS011;9599;53.706;10.384;2022-08-25T01:53:12;9.03;;;7.87;;
18933;SDS011;9599;53.706;10.384;2022-08-25T01:55:45;10.03;;;7.60;;
18933;SDS011;9599;53.706;10.384;2022-08-25T01:58:22;10.47;;;7.80;;
18933;SDS011;9599;53.706;10.384;2022-08-25T02:00:53;10.50;;;8.00;;
18933;SDS011;9599;53.706;10.384;2022-08-25T02:03:23;9.80;;;7.77;;
18933;SDS011;9599;53.706;10.384;2022-08-25T02:05:52;11.13;;;7.80;;
18933;SDS011;9599;53.706;10.384;2022-08-25T02:08:22;10.20;;;7.43;;
18933;SDS011;9599;53.706;10.384;2022-08-25T02:10:51;8.43;;;7.57;;
18933;SDS011;9599;53.706;10.384;2022-08-25T02:13:20;10.03;;;7.40;;
18933;SDS011;9599;53.706;10.384;2022-08-25T02:15:56;7.93;;;7.00;;
18933;SDS011;9599;53.706;10.384;2022-08-25T02:18:27;10.33;;;7.87;;
18933;SDS011;9599;53.706;10.384;2022-08-25T02:20:55;10.70;;;7.70;;
18933;SDS011;9599;53.706;10.384;2022-08-25T02:23:24;9.57;;;7.70;;
18933;SDS011;9599;53.706;10.384;2022-08-25T02:25:53;11.27;;;7.43;;
18933;SDS011;9599;53.706;10.384;2022-08-25T02:28:22;10.83;;;8.00;;
18933;SDS011;9599;53.706;10.384;2022-08-25T02:30:50;11.43;;;8.33;;
18933;SDS011;9599;53.706;10.384;2022-08-25T02:33:26;10.50;;;8.00;;
18933;SDS011;9599;53.706;10.384;2022-08-25T02:35:56;12.37;;;9.00;;
18933;SDS011;9599;53.706;10.384;2022-08-25T02:38:26;12.23;;;8.73;;
18933;SDS011;9599;53.706;10.384;2022-08-25T02:40:54;10.00;;;7.60;;
18933;SDS011;9599;53.706;10.384;2022-08-25T02:43:23;8.73;;;7.80;;
18933;SDS011;9599;53.706;10.384;2022-08-25T02:45:52;10.77;;;8.30;;
18933;SDS011;9599;53.706;10.384;2022-08-25T02:48:21;11.27;;;8.23;;
18933;SDS011;9599;53.706;10.384;2022-08-25T02:50:50;11.43;;;8.07;;
18933;SDS011;9599;53.706;10.384;2022-08-25T02:53:19;10.10;;;8.30;;
18933;SDS011;9599;53.706;10.384;2022-08-25T02:55:48;12.33;;;8.50;;
18933;SDS011;9599;53.706;10.384;2022-08-25T02:58:16;9.37;;;8.17;;
18933;SDS011;9599;53.706;10.384;2022-08-25T03:00:44;12.43;;;9.10;;
18933;SDS011;9599;53.706;10.384;2022-08-25T03:03:13;11.70;;;9.13;;
18933;SDS011;9599;53.706;10.384;2022-08-25T03:05:41;10.30;;;8.37;;
18933;SDS011;9599;53.706;10.384;2022-08-25T03:08:09;11.57;;;8.20;;
18933;SDS011;9599;53.706;10.384;2022-08-25T03:10:37;9.40;;;7.90;;
18933;SDS011;9599;53.706;10.384;2022-08-25T03:13:07;10.70;;;8.83;;
18933;SDS011;9599;53.706;10.384;2022-08-25T03:15:35;11.13;;;8.50;;
18933;SDS011;9599;53.706;10.384;2022-08-25T03:18:04;9.77;;;8.77;;
18933;SDS011;9599;53.706;10.384;2022-08-25T03:20:34;9.60;;;7.47;;
18933;SDS011;9599;53.706;10.384;2022-08-25T03:23:02;8.97;;;7.70;;
18933;SDS011;9599;53.706;10.384;2022-08-25T03:25:32;9.97;;;7.17;;
18933;SDS011;9599;53.706;10.384;2022-08-25T03:28:19;10.37;;;7.47;;
18933;SDS011;9599;53.706;10.384;2022-08-25T03:30:55;8.50;;;7.60;;
18933;SDS011;9599;53.706;10.384;2022-08-25T03:33:25;9.43;;;7.77;;
18933;SDS011;9599;53.706;10.384;2022-08-25T03:35:53;8.27;;;7.23;;
18933;SDS011;9599;53.706;10.384;2022-08-25T03:38:22;12.07;;;7.50;;
18933;SDS011;9599;53.706;10.384;2022-08-25T03:40:51;10.83;;;8.23;;
18933;SDS011;9599;53.706;10.384;2022-08-25T03:43:21;11.00;;;8.53;;
18933;SDS011;9599;53.706;10.384;2022-08-25T03:45:49;11.70;;;9.40;;
18933;SDS011;9599;53.706;10.384;2022-08-25T03:48:17;13.83;;;10.20;;
18933;SDS011;9599;53.706;10.384;2022-08-25T03:50:45;19.63;;;12.23;;
18933;SDS011;9599;53.706;10.384;2022-08-25T03:53:17;16.93;;;12.40;;
18933;SDS011;9599;53.706;10.384;2022-08-25T03:55:45;20.47;;;13.30;;
18933;SDS011;9599;53.706;10.384;2022-08-25T03:58:14;21.77;;;14.30;;
18933;SDS011;9599;53.706;10.384;2022-08-25T04:00:44;21.37;;;14.50;;
18933;SDS011;9599;53.706;10.384;2022-08-25T04:03:12;25.10;;;15.47;;
18933;SDS011;9599;53.706;10.384;2022-08-25T04:05:40;22.23;;;15.57;;
18933;SDS011;9599;53.706;10.384;2022-08-25T04:08:08;23.63;;;15.47;;
18933;SDS011;9599;53.706;10.384;2022-08-25T04:10:36;20.30;;;16.23;;
18933;SDS011;9599;53.706;10.384;2022-08-25T04:13:04;22.80;;;15.70;;
18933;SDS011;9599;53.706;10.384;2022-08-25T04:15:32;24.90;;;16.47;;
18933;SDS011;9599;53.706;10.384;2022-08-25T04:18:03;21.33;;;15.73;;
18933;SDS011;9599;53.706;10.384;2022-08-25T04:20:31;21.50;;;16.13;;
18933;SDS011;9599;53.706;10.384;2022-08-25T04:22:59;27.13;;;17.27;;
18933;SDS011;9599;53.706;10.384;2022-08-25T04:25:27;21.00;;;15.87;;
18933;SDS011;9599;53.706;10.384;2022-08-25T04:27:55;21.20;;;16.07;;
18933;SDS011;9599;53.706;10.384;2022-08-25T04:30:23;21.63;;;16.30;;
18933;SDS011;9599;53.706;10.384;2022-08-25T04:32:51;20.47;;;15.53;;
18933;SDS011;9599;53.706;10.384;2022-08-25T04:35:21;20.00;;;16.07;;
18933;SDS011;9599;53.706;10.384;2022-08-25T04:37:49;33.70;;;15.93;;
18933;SDS011;9599;53.706;10.384;2022-08-25T04:40:17;29.20;;;16.80;;
18933;SDS011;9599;53.706;10.384;2022-08-25T04:42:53;19.33;;;15.93;;
18933;SDS011;9599;53.706;10.384;2022-08-25T04:45:21;27.80;;;16.50;;
18933;SDS011;9599;53.706;10.384;2022-08-25T04:47:49;46.33;;;17.20;;
18933;SDS011;9599;53.706;10.384;2022-08-25T04:50:29;23.77;;;15.87;;
18933;SDS011;9599;53.706;10.384;2022-08-25T04:52:58;22.43;;;16.83;;
18933;SDS011;9599;53.706;10.384;2022-08-25T04:55:26;23.43;;;17.57;;
18933;SDS011;9599;53.706;10.384;2022-08-25T04:57:54;24.83;;;17.37;;
18933;SDS011;9599;53.706;10.384;2022-08-25T05:00:22;23.93;;;17.33;;
18933;SDS011;9599;53.706;10.384;2022-08-25T05:02:50;23.63;;;18.07;;
18933;SDS011;9599;53.706;10.384;2022-08-25T05:05:20;30.97;;;17.17;;
18933;SDS011;9599;53.706;10.384;2022-08-25T05:07:50;40.33;;;17.27;;
18933;SDS011;9599;53.706;10.384;2022-08-25T05:10:18;23.83;;;17.70;;
18933;SDS011;9599;53.706;10.384;2022-08-25T05:12:47;50.73;;;18.87;;
18933;SDS011;9599;53.706;10.384;2022-08-25T05:15:15;34.97;;;18.77;;
18933;SDS011;9599;53.706;10.384;2022-08-25T05:18:01;23.10;;;18.03;;
18933;SDS011;9599;53.706;10.384;2022-08-25T05:20:29;24.43;;;17.60;;
18933;SDS011;9599;53.706;10.384;2022-08-25T05:22:58;22.77;;;17.77;;
18933;SDS011;9599;53.706;10.384;2022-08-25T05:25:26;29.20;;;18.83;;
18933;SDS011;9599;53.706;10.384;2022-08-25T05:27:54;27.40;;;18.10;;
18933;SDS011;9599;53.706;10.384;2022-08-25T05:30:22;53.50;;;20.80;;
18933;SDS011;9599;53.706;10.384;2022-08-25T05:32:50;24.23;;;18.33;;
18933;SDS011;9599;53.706;10.384;2022-08-25T05:35:18;24.23;;;18.67;;
18933;SDS011;9599;53.706;10.384;2022-08-25T05:37:46;24.00;;;18.40;;
18933;SDS011;9599;53.706;10.384;2022-08-25T05:40:15;24.60;;;17.73;;
18933;SDS011;9599;53.706;10.384;2022-08-25T05:42:43;49.53;;;20.83;;
18933;SDS011;9599;53.706;10.384;2022-08-25T05:45:11;33.47;;;18.97;;
18933;SDS011;9599;53.706;10.384;2022-08-25T05:47:46;40.50;;;20.70;;
18933;SDS011;9599;53.706;10.384;2022-08-25T05:50:14;34.37;;;19.80;;
18933;SDS011;9599;53.706;10.384;2022-08-25T05:52:42;30.37;;;19.73;;
18933;SDS011;9599;53.706;10.384;2022-08-25T05:55:10;52.33;;;21.17;;
18933;SDS011;9599;53.706;10.384;2022-08-25T05:57:40;50.77;;;19.03;;
18933;SDS011;9599;53.706;10.384;2022-08-25T06:00:08;43.30;;;18.50;;
18933;SDS011;9599;53.706;10.384;2022-08-25T06:02:37;30.50;;;18.57;;
18933;SDS011;9599;53.706;10.384;2022-08-25T06:05:09;29.57;;;20.20;;
18933;SDS011;9599;53.706;10.384;2022-08-25T06:07:39;27.13;;;19.27;;
18933;SDS011;9599;53.706;10.384;2022-08-25T06:10:07;37.00;;;18.90;;
18933;SDS011;9599;53.706;10.384;2022-08-25T06:12:40;42.17;;;19.23;;
18933;SDS011;9599;53.706;10.384;2022-08-25T06:15:10;35.37;;;18.87;;
18933;SDS011;9599;53.706;10.384;2022-08-25T06:17:40;22.67;;;17.90;;
18933;SDS011;9599;53.706;10.384;2022-08-25T06:20:10;27.37;;;17.17;;
18933;SDS011;9599;53.706;10.384;2022-08-25T06:22:40;27.90;;;17.47;;
18933;SDS011;9599;53.706;10.384;2022-08-25T06:25:09;33.53;;;17.97;;
18933;SDS011;9599;53.706;10.384;2022-08-25T06:27:40;28.03;;;18.87;;
18933;SDS011;9599;53.706;10.384;2022-08-25T06:30:09;21.03;;;16.90;;
18933;SDS011;9599;53.706;10.384;2022-08-25T06:32:42;21.40;;;17.80;;
18933;SDS011;9599;53.706;10.384;2022-08-25T06:35:11;25.60;;;18.70;;
18933;SDS011;9599;53.706;10.384;2022-08-25T06:37:41;25.00;;;18.17;;
18933;SDS011;9599;53.706;10.384;2022-08-25T06:40:09;25.93;;;19.00;;
18933;SDS011;9599;53.706;10.384;2022-08-25T06:42:40;26.27;;;19.53;;
18933;SDS011;9599;53.706;10.384;2022-08-25T06:45:08;28.40;;;18.60;;
18933;SDS011;9599;53.706;10.384;2022-08-25T06:47:36;26.57;;;19.10;;
18933;SDS011;9599;53.706;10.384;2022-08-25T06:50:05;42.00;;;19.00;;
18933;SDS011;9599;53.706;10.384;2022-08-25T06:52:33;26.13;;;18.73;;
18933;SDS011;9599;53.706;10.384;2022-08-25T06:55:02;24.00;;;18.93;;
18933;SDS011;9599;53.706;10.384;2022-08-25T06:57:32;23.37;;;18.53;;
18933;SDS011;9599;53.706;10.384;2022-08-25T07:00:02;21.70;;;19.20;;
18933;SDS011;9599;53.706;10.384;2022-08-25T07:02:31;28.20;;;19.53;;
18933;SDS011;9599;53.706;10.384;2022-08-25T07:05:00;23.37;;;19.00;;
18933;SDS011;9599;53.706;10.384;2022-08-25T07:07:30;20.60;;;17.80;;
18933;SDS011;9599;53.706;10.384;2022-08-25T07:10:09;23.77;;;19.40;;
18933;SDS011;9599;53.706;10.384;2022-08-25T07:12:38;19.37;;;16.43;;
18933;SDS011;9599;53.706;10.384;2022-08-25T07:15:07;24.43;;;19.77;;
18933;SDS011;9599;53.706;10.384;2022-08-25T07:17:46;22.80;;;19.17;;
18933;SDS011;9599;53.706;10.384;2022-08-25T07:20:14;23.50;;;17.90;;
18933;SDS011;9599;53.706;10.384;2022-08-25T07:22:44;23.40;;;19.37;;
18933;SDS011;9599;53.706;10.384;2022-08-25T07:25:13;28.30;;;20.27;;
18933;SDS011;9599;53.706;10.384;2022-08-25T07:27:43;23.13;;;19.07;;
18933;SDS011;9599;53.706;10.384;2022-08-25T07:30:12;26.20;;;19.33;;
18933;SDS011;9599;53.706;10.384;2022-08-25T07:32:40;24.40;;;19.27;;
18933;SDS011;9599;53.706;10.384;2022-08-25T07:35:09;25.47;;;20.97;;
18933;SDS011;9599;53.706;10.384;2022-08-25T07:37:45;25.53;;;20.97;;
18933;SDS011;9599;53.706;10.384;2022-08-25T07:40:15;26.60;;;21.13;;
18933;SDS011;9599;53.706;10.384;2022-08-25T07:42:47;25.53;;;21.80;;
18933;SDS011;9599;53.706;10.384;2022-08-25T07:45:17;22.63;;;19.27;;
18933;SDS011;9599;53.706;10.384;2022-08-25T07:47:46;18.67;;;16.57;;
18933;SDS011;9599;53.706;10.384;2022-08-25T07:50:17;19.87;;;16.00;;
18933;SDS011;9599;53.706;10.384;2022-08-25T07:52:45;20.87;;;14.73;;
18933;SDS011;9599;53.706;10.384;2022-08-25T07:55:24;17.97;;;14.40;;
18933;SDS011;9599;53.706;10.384;2022-08-25T07:57:54;17.03;;;14.83;;
18933;SDS011;9599;53.706;10.384;2022-08-25T08:00:26;17.30;;;15.00;;
18933;SDS011;9599;53.706;10.384;2022-08-25T08:02:55;23.77;;;14.30;;
18933;SDS011;9599;53.706;10.384;2022-08-25T08:05:24;17.60;;;13.57;;
18933;SDS011;9599;53.706;10.384;2022-08-25T08:07:53;15.80;;;12.73;;
18933;SDS011;9599;53.706;10.384;2022-08-25T08:10:22;15.77;;;12.53;;
18933;SDS011;9599;53.706;10.384;2022-08-25T08:13:10;14.37;;;12.13;;
18933;SDS011;9599;53.706;10.384;2022-08-25T08:15:45;17.47;;;11.50;;
18933;SDS011;9599;53.706;10.384;2022-08-25T08:18:13;14.27;;;11.07;;
18933;SDS011;9599;53.706;10.384;2022-08-25T08:20:43;12.67;;;9.70;;
18933;SDS011;9599;53.706;10.384;2022-08-25T08:23:13;12.53;;;8.80;;
18933;SDS011;9599;53.706;10.384;2022-08-25T08:25:41;10.23;;;9.13;;
18933;SDS011;9599;53.706;10.384;2022-08-25T08:28:09;11.50;;;9.03;;
18933;SDS011;9599;53.706;10.384;2022-08-25T08:30:38;13.77;;;9.73;;
18933;SDS011;9599;53.706;10.384;2022-08-25T08:33:20;14.03;;;9.40;;
18933;SDS011;9599;53.706;10.384;2022-08-25T08:35:54;11.87;;;9.10;;
18933;SDS011;9599;53.706;10.384;2022-08-25T08:38:24;11.37;;;8.30;;
18933;SDS011;9599;53.706;10.384;2022-08-25T08:40:54;11.20;;;8.40;;
18933;SDS011;9599;53.706;10.384;2022-08-25T08:43:48;10.93;;;7.17;;
18933;SDS011;9599;53.706;10.384;2022-08-25T08:46:22;13.63;;;8.13;;
18933;SDS011;9599;53.706;10.384;2022-08-25T08:48:59;10.60;;;7.03;;
18933;SDS011;9599;53.706;10.384;2022-08-25T08:51:34;12.00;;;6.70;;
18933;SDS011;9599;53.706;10.384;2022-08-25T08:54:14;11.70;;;6.90;;
18933;SDS011;9599;53.706;10.384;2022-08-25T08:56:49;13.47;;;7.57;;
18933;SDS011;9599;53.706;10.384;2022-08-25T08:59:23;9.33;;;6.50;;
18933;SDS011;9599;53.706;10.384;2022-08-25T09:01:56;10.00;;;6.83;;
18933;SDS011;9599;53.706;10.384;2022-08-25T09:04:31;11.23;;;6.47;;
18933;SDS011;9599;53.706;10.384;2022-08-25T09:07:02;11.90;;;6.60;;
18933;SDS011;9599;53.706;10.384;2022-08-25T09:09:35;12.27;;;6.43;;
18933;SDS011;9599;53.706;10.384;2022-08-25T09:12:08;10.37;;;6.33;;
18933;SDS011;9599;53.706;10.384;2022-08-25T09:14:50;8.80;;;6.23;;
18933;SDS011;9599;53.706;10.384;2022-08-25T09:17:57;10.27;;;6.17;;
18933;SDS011;9599;53.706;10.384;2022-08-25T09:20:51;7.60;;;5.60;;
18933;SDS011;9599;53.706;10.384;2022-08-25T09:23:30;9.10;;;5.17;;
18933;SDS011;9599;53.706;10.384;2022-08-25T09:26:09;7.37;;;5.23;;
18933;SDS011;9599;53.706;10.384;2022-08-25T09:28:48;12.80;;;6.10;;
18933;SDS011;9599;53.706;10.384;2022-08-25T09:31:21;10.23;;;5.60;;
18933;SDS011;9599;53.706;10.384;2022-08-25T09:33:55;8.23;;;5.10;;
18933;SDS011;9599;53.706;10.384;2022-08-25T09:36:28;9.03;;;4.90;;
18933;SDS011;9599;53.706;10.384;2022-08-25T09:39:02;6.53;;;4.63;;
18933;SDS011;9599;53.706;10.384;2022-08-25T09:41:39;8.13;;;4.90;;
18933;SDS011;9599;53.706;10.384;2022-08-25T09:44:16;7.10;;;4.50;;
18933;SDS011;9599;53.706;10.384;2022-08-25T09:46:57;8.23;;;4.70;;
18933;SDS011;9599;53.706;10.384;2022-08-25T09:49:34;6.63;;;4.60;;
18933;SDS011;9599;53.706;10.384;2022-08-25T09:52:32;7.88;;;4.93;;
18933;SDS011;9599;53.706;10.384;2022-08-25T09:58:00;7.67;;;4.37;;
18933;SDS011;9599;53.706;10.384;2022-08-25T10:00:42;6.60;;;4.00;;
18933;SDS011;9599;53.706;10.384;2022-08-25T10:03:12;8.18;;;4.15;;
18933;SDS011;9599;53.706;10.384;2022-08-25T10:05:58;8.07;;;4.30;;
18933;SDS011;9599;53.706;10.384;2022-08-25T10:08:32;7.43;;;4.20;;
18933;SDS011;9599;53.706;10.384;2022-08-25T10:11:06;8.02;;;4.10;;
18933;SDS011;9599;53.706;10.384;2022-08-25T10:13:38;7.00;;;3.88;;
18933;SDS011;9599;53.706;10.384;2022-08-25T10:16:10;6.47;;;3.75;;
18933;SDS011;9599;53.706;10.384;2022-08-25T10:19:00;7.05;;;3.65;;
18933;SDS011;9599;53.706;10.384;2022-08-25T10:21:32;9.93;;;4.15;;
18933;SDS011;9599;53.706;10.384;2022-08-25T10:24:03;7.32;;;3.70;;
18933;SDS011;9599;53.706;10.384;2022-08-25T10:26:37;7.07;;;3.30;;
18933;SDS011;9599;53.706;10.384;2022-08-25T10:29:17;11.32;;;3.60;;
18933;SDS011;9599;53.706;10.384;2022-08-25T10:31:58;9.23;;;3.75;;
18933;SDS011;9599;53.706;10.384;2022-08-25T10:34:40;7.05;;;3.63;;
18933;SDS011;9599;53.706;10.384;2022-08-25T10:37:19;7.10;;;3.55;;
18933;SDS011;9599;53.706;10.384;2022-08-25T10:40:02;6.93;;;3.50;;
18933;SDS011;9599;53.706;10.384;2022-08-25T10:42:54;5.82;;;3.10;;
18933;SDS011;9599;53.706;10.384;2022-08-25T10:45:34;4.75;;;3.33;;
18933;SDS011;9599;53.706;10.384;2022-08-25T10:48:16;6.13;;;3.40;;
18933;SDS011;9599;53.706;10.384;2022-08-25T10:50:57;5.20;;;3.42;;
18933;SDS011;9599;53.706;10.384;2022-08-25T10:53:33;5.68;;;3.42;;
18933;SDS011;9599;53.706;10.384;2022-08-25T10:56:14;4.70;;;3.20;;
18933;SDS011;9599;53.706;10.384;2022-08-25T10:58:50;5.65;;;3.20;;
18933;SDS011;9599;53.706;10.384;2022-08-25T11:01:47;5.90;;;3.50;;
18933;SDS011;9599;53.706;10.384;2022-08-25T11:04:37;5.40;;;2.97;;
18933;SDS011;9599;53.706;10.384;2022-08-25T11:07:14;5.47;;;3.17;;
18933;SDS011;9599;53.706;10.384;2022-08-25T11:09:49;5.78;;;2.95;;
18933;SDS011;9599;53.706;10.384;2022-08-25T11:12:24;6.25;;;3.20;;
18933;SDS011;9599;53.706;10.384;2022-08-25T11:14:57;7.22;;;3.03;;
18933;SDS011;9599;53.706;10.384;2022-08-25T11:17:33;5.53;;;3.10;;
18933;SDS011;9599;53.706;10.384;2022-08-25T11:20:08;6.07;;;2.80;;
18933;SDS011;9599;53.706;10.384;2022-08-25T11:22:53;5.45;;;2.80;;
18933;SDS011;9599;53.706;10.384;2022-08-25T11:25:37;4.20;;;3.10;;
18933;SDS011;9599;53.706;10.384;2022-08-25T11:28:11;5.68;;;3.22;;
18933;SDS011;9599;53.706;10.384;2022-08-25T11:30:43;9.32;;;3.15;;
18933;SDS011;9599;53.706;10.384;2022-08-25T11:33:12;6.82;;;3.10;;
18933;SDS011;9599;53.706;10.384;2022-08-25T11:35:41;4.88;;;3.08;;
18933;SDS011;9599;53.706;10.384;2022-08-25T11:38:17;5.05;;;3.10;;
18933;SDS011;9599;53.706;10.384;2022-08-25T11:41:01;6.07;;;2.85;;
18933;SDS011;9599;53.706;10.384;2022-08-25T11:43:47;4.10;;;2.80;;
18933;SDS011;9599;53.706;10.384;2022-08-25T11:46:35;5.75;;;3.00;;
18933;SDS011;9599;53.706;10.384;2022-08-25T11:49:21;4.05;;;2.90;;
18933;SDS011;9599;53.706;10.384;2022-08-25T11:51:59;6.30;;;2.90;;
18933;SDS011;9599;53.706;10.384;2022-08-25T11:54:29;3.72;;;2.80;;
18933;SDS011;9599;53.706;10.384;2022-08-25T11:57:07;8.90;;;3.42;;
18933;SDS011;9599;53.706;10.384;2022-08-25T12:02:35;6.38;;;2.95;;
18933;SDS011;9599;53.706;10.384;2022-08-25T12:05:09;5.30;;;3.22;;
18933;SDS011;9599;53.706;10.384;2022-08-25T12:08:01;3.92;;;2.78;;
18933;SDS011;9599;53.706;10.384;2022-08-25T12:10:56;5.22;;;3.00;;
18933;SDS011;9599;53.706;10.384;2022-08-25T12:13:37;8.00;;;3.30;;
18933;SDS011;9599;53.706;10.384;2022-08-25T12:19:22;7.72;;;2.80;;
18933;SDS011;9599;53.706;10.384;2022-08-25T12:21:55;5.63;;;3.00;;
18933;SDS011;9599;53.706;10.384;2022-08-25T12:24:44;6.15;;;3.15;;
18933;SDS011;9599;53.706;10.384;2022-08-25T12:27:20;7.32;;;3.33;;
18933;SDS011;9599;53.706;10.384;2022-08-25T12:29:54;5.20;;;3.45;;
18933;SDS011;9599;53.706;10.384;2022-08-25T12:32:36;3.65;;;3.03;;
18933;SDS011;9599;53.706;10.384;2022-08-25T12:35:18;6.78;;;2.95;;
18933;SDS011;9599;53.706;10.384;2022-08-25T12:37:56;6.93;;;3.13;;
18933;SDS011;9599;53.706;10.384;2022-08-25T12:40:28;7.20;;;3.30;;
18933;SDS011;9599;53.706;10.384;2022-08-25T12:43:07;6.30;;;3.30;;
18933;SDS011;9599;53.706;10.384;2022-08-25T12:45:42;4.13;;;3.00;;
18933;SDS011;9599;53.706;10.384;2022-08-25T12:51:22;4.45;;;3.45;;
18933;SDS011;9599;53.706;10.384;2022-08-25T12:53:51;5.93;;;3.00;;
18933;SDS011;9599;53.706;10.384;2022-08-25T12:56:25;5.85;;;3.05;;
18933;SDS011;9599;53.706;10.384;2022-08-25T12:59:04;4.70;;;3.22;;
18933;SDS011;9599;53.706;10.384;2022-08-25T13:01:43;4.38;;;3.08;;
18933;SDS011;9599;53.706;10.384;2022-08-25T13:07:35;6.70;;;3.10;;
18933;SDS011;9599;53.706;10.384;2022-08-25T13:10:16;6.03;;;3.20;;
18933;SDS011;9599;53.706;10.384;2022-08-25T13:13:02;5.28;;;3.00;;
18933;SDS011;9599;53.706;10.384;2022-08-25T13:15:39;4.13;;;3.33;;
18933;SDS011;9599;53.706;10.384;2022-08-25T13:18:13;5.03;;;3.10;;
18933;SDS011;9599;53.706;10.384;2022-08-25T13:20:47;7.10;;;3.30;;
18933;SDS011;9599;53.706;10.384;2022-08-25T13:23:20;5.32;;;3.10;;
18933;SDS011;9599;53.706;10.384;2022-08-25T13:25:54;5.40;;;3.70;;
18933;SDS011;9599;53.706;10.384;2022-08-25T13:28:26;5.10;;;3.33;;
18933;SDS011;9599;53.706;10.384;2022-08-25T13:31:03;4.38;;;3.25;;
18933;SDS011;9599;53.706;10.384;2022-08-25T13:33:33;4.07;;;3.28;;
18933;SDS011;9599;53.706;10.384;2022-08-25T13:36:04;4.78;;;3.33;;
18933;SDS011;9599;53.706;10.384;2022-08-25T13:38:49;10.70;;;3.50;;
18933;SDS011;9599;53.706;10.384;2022-08-25T13:41:22;5.10;;;3.25;;
18933;SDS011;9599;53.706;10.384;2022-08-25T13:43:54;5.25;;;3.40;;
18933;SDS011;9599;53.706;10.384;2022-08-25T13:46:27;4.55;;;3.50;;
18933;SDS011;9599;53.706;10.384;2022-08-25T13:49:01;4.40;;;3.42;;
18933;SDS011;9599;53.706;10.384;2022-08-25T13:51:32;7.30;;;3.50;;
18933;SDS011;9599;53.706;10.384;2022-08-25T13:54:01;5.97;;;3.60;;
18933;SDS011;9599;53.706;10.384;2022-08-25T13:56:32;4.47;;;3.50;;
18933;SDS011;9599;53.706;10.384;2022-08-25T13:59:16;4.80;;;3.53;;
18933;SDS011;9599;53.706;10.384;2022-08-25T14:01:48;5.88;;;4.00;;
18933;SDS011;9599;53.706;10.384;2022-08-25T14:04:19;4.20;;;3.60;;
18933;SDS011;9599;53.706;10.384;2022-08-25T14:07:06;7.15;;;3.70;;
18933;SDS011;9599;53.706;10.384;2022-08-25T14:09:51;6.78;;;3.45;;
18933;SDS011;9599;53.706;10.384;2022-08-25T14:12:27;8.63;;;3.70;;
18933;SDS011;9599;53.706;10.384;2022-08-25T14:15:06;4.25;;;3.33;;
18933;SDS011;9599;53.706;10.384;2022-08-25T14:17:37;7.00;;;3.80;;
18933;SDS011;9599;53.706;10.384;2022-08-25T14:20:14;9.57;;;3.58;;
18933;SDS011;9599;53.706;10.384;2022-08-25T14:22:48;5.07;;;3.75;;
18933;SDS011;9599;53.706;10.384;2022-08-25T14:25:23;6.88;;;3.53;;
18933;SDS011;9599;53.706;10.384;2022-08-25T14:27:55;5.10;;;3.40;;
18933;SDS011;9599;53.706;10.384;2022-08-25T14:30:42;8.45;;;3.53;;
18933;SDS011;9599;53.706;10.384;2022-08-25T14:33:13;4.97;;;3.20;;
18933;SDS011;9599;53.706;10.384;2022-08-25T14:35:42;7.55;;;3.80;;
18933;SDS011;9599;53.706;10.384;2022-08-25T14:38:15;6.95;;;3.83;;
18933;SDS011;9599;53.706;10.384;2022-08-25T14:40:44;6.85;;;3.88;;
18933;SDS011;9599;53.706;10.384;2022-08-25T14:43:12;6.32;;;3.85;;
18933;SDS011;9599;53.706;10.384;2022-08-25T14:45:42;4.60;;;3.65;;
18933;SDS011;9599;53.706;10.384;2022-08-25T14:48:15;5.50;;;3.00;;
18933;SDS011;9599;53.706;10.384;2022-08-25T14:50:47;5.55;;;3.30;;
18933;SDS011;9599;53.706;10.384;2022-08-25T14:53:17;8.85;;;3.50;;
18933;SDS011;9599;53.706;10.384;2022-08-25T14:55:45;3.92;;;3.30;;
18933;SDS011;9599;53.706;10.384;2022-08-25T14:58:16;6.30;;;3.50;;
18933;SDS011;9599;53.706;10.384;2022-08-25T15:00:52;8.85;;;3.35;;
18933;SDS011;9599;53.706;10.384;2022-08-25T15:03:26;8.00;;;3.88;;
18933;SDS011;9599;53.706;10.384;2022-08-25T15:05:57;7.32;;;3.83;;
18933;SDS011;9599;53.706;10.384;2022-08-25T15:08:28;5.85;;;3.53;;
18933;SDS011;9599;53.706;10.384;2022-08-25T15:11:14;6.28;;;3.60;;
18933;SDS011;9599;53.706;10.384;2022-08-25T15:13:42;7.97;;;3.30;;
18933;SDS011;9599;53.706;10.384;2022-08-25T15:16:18;9.13;;;3.60;;
18933;SDS011;9599;53.706;10.384;2022-08-25T15:18:59;6.25;;;4.00;;
18933;SDS011;9599;53.706;10.384;2022-08-25T15:21:32;9.15;;;4.68;;
18933;SDS011;9599;53.706;10.384;2022-08-25T15:24:02;6.53;;;4.10;;
18933;SDS011;9599;53.706;10.384;2022-08-25T15:26:32;7.38;;;4.20;;